createdAt,value
2018-05-03T00:00:01.586Z,14.34
2018-05-03T00:09:56.766Z,14.34
2018-05-03T00:19:53.309Z,14.24
2018-05-03T00:29:49.739Z,14.54
2018-05-03T00:39:45.199Z,14.05
2018-05-03T00:49:43.095Z,14.05
2018-05-03T00:59:39.732Z,14.05
2018-05-03T01:09:35.641Z,14.05
2018-05-03T01:19:34.457Z,14.05
2018-05-03T01:29:31.464Z,13.95
2018-05-03T01:39:27.090Z,13.66
2018-05-03T01:49:24.078Z,13.56
2018-05-03T01:59:23.821Z,13.26
2018-05-03T02:09:21.545Z,12.97
2018-05-03T02:19:17.981Z,12.78
2018-05-03T02:29:15.322Z,12.68
2018-05-03T02:39:10.218Z,12.48
2018-05-03T02:49:07.568Z,12.29
2018-05-03T02:59:04.435Z,12.09
2018-05-03T03:08:59.791Z,11.90
2018-05-03T03:18:58.033Z,11.90
2018-05-03T03:28:51.945Z,11.70
2018-05-03T03:38:49.701Z,11.60
2018-05-03T03:48:47.568Z,11.50
2018-05-03T03:58:44.611Z,11.41
2018-05-03T04:08:39.797Z,11.31
2018-05-03T04:18:39.345Z,11.11
2018-05-03T04:28:23.034Z,11.41
2018-05-03T04:38:22.080Z,11.60
2018-05-03T04:48:20.720Z,11.80
2018-05-03T04:58:18.851Z,11.89
2018-05-03T05:08:14.557Z,12.19
2018-05-03T05:18:10.617Z,12.39
2018-05-03T05:28:09.869Z,12.68
2018-05-03T05:38:07.473Z,12.97
2018-05-03T05:48:06.816Z,13.26
2018-05-03T05:58:04.729Z,13.66
2018-05-03T06:08:02.579Z,14.05
2018-05-03T06:17:59.409Z,14.44
2018-05-03T06:27:58.525Z,15.32
2018-05-03T06:37:57.608Z,15.61
2018-05-03T06:47:53.431Z,15.81
2018-05-03T06:57:51.428Z,16.10
2018-05-03T07:07:49.414Z,16.40
2018-05-03T07:17:46.940Z,16.69
2018-05-03T07:27:44.770Z,16.98
2018-05-03T07:37:43.205Z,17.27
2018-05-03T07:47:42.050Z,17.47
2018-05-03T07:57:37.968Z,17.76
2018-05-03T08:07:29.823Z,18.35
2018-05-03T08:17:27.970Z,18.64
2018-05-03T08:27:20.524Z,18.84
2018-05-03T08:37:17.492Z,19.13
2018-05-03T08:47:14.068Z,19.52
2018-05-03T08:57:12.549Z,19.92
2018-05-03T09:07:08.829Z,20.60
2018-05-03T09:17:07.570Z,20.89
2018-05-03T09:27:03.594Z,21.09
2018-05-03T09:36:59.890Z,20.99
2018-05-03T09:46:55.798Z,21.19
2018-05-03T09:56:51.981Z,21.19
2018-05-03T10:06:47.828Z,21.68
2018-05-03T10:16:46.457Z,22.46
2018-05-03T10:26:43.228Z,22.75
2018-05-03T10:36:39.013Z,23.44
2018-05-03T10:46:21.679Z,23.93
2018-05-03T10:55:52.337Z,24.71
2018-05-03T11:05:32.295Z,24.61
2018-05-03T11:15:01.619Z,25.00
2018-05-03T11:24:38.913Z,25.10
2018-05-03T11:34:20.705Z,25.59
2018-05-03T11:43:50.726Z,26.56
2018-05-03T11:53:26.911Z,25.20
2018-05-03T12:03:05.403Z,26.27
2018-05-03T12:12:43.110Z,28.13
2018-05-03T12:22:20.093Z,26.17
2018-05-03T12:31:57.558Z,26.47
2018-05-03T12:41:35.847Z,27.35
2018-05-03T12:51:13.448Z,27.54
2018-05-03T13:00:51.628Z,27.64
2018-05-03T13:10:30.264Z,27.83
2018-05-03T13:20:09.449Z,28.81
2018-05-03T13:29:44.995Z,26.27
2018-05-03T13:39:20.069Z,26.17
2018-05-03T13:49:02.945Z,28.52
2018-05-03T13:58:39.682Z,26.47
2018-05-03T14:08:10.810Z,25.00
2018-05-03T14:17:48.205Z,25.29
2018-05-03T14:27:32.002Z,26.86
2018-05-03T14:37:08.308Z,26.96
2018-05-03T14:46:48.413Z,28.72
2018-05-03T14:56:27.790Z,29.60
2018-05-03T15:06:05.351Z,28.13
2018-05-03T15:15:35.135Z,25.10
2018-05-03T15:25:15.386Z,24.61
2018-05-03T15:34:41.276Z,23.24
2018-05-03T15:44:21.322Z,22.85
2018-05-03T15:54:08.738Z,22.56
2018-05-03T16:04:04.888Z,22.46
2018-05-03T16:13:56.967Z,22.17
2018-05-03T16:23:53.521Z,22.07
2018-05-03T16:33:45.967Z,21.87
2018-05-03T16:43:42.636Z,21.48
2018-05-03T16:53:39.027Z,21.29
2018-05-03T17:03:31.831Z,20.80
2018-05-03T17:13:28.007Z,20.41
2018-05-03T17:23:23.807Z,20.11
2018-05-03T17:33:20.940Z,19.62
2018-05-03T17:43:16.877Z,19.04
2018-05-03T17:53:14.458Z,18.64
2018-05-03T18:03:09.510Z,18.15
2018-05-03T18:13:02.420Z,17.86
2018-05-03T18:22:57.188Z,17.47
2018-05-03T18:32:50.776Z,17.18
2018-05-03T18:42:44.020Z,16.78
2018-05-03T18:52:40.252Z,16.69
2018-05-03T19:02:36.872Z,16.49
2018-05-03T19:12:34.759Z,16.20
2018-05-03T19:22:32.229Z,16.10
2018-05-03T19:32:29.495Z,15.91
2018-05-03T19:42:25.986Z,15.61
2018-05-03T19:52:23.737Z,15.42
2018-05-03T20:02:19.333Z,15.32
2018-05-03T20:12:12.845Z,15.22
2018-05-03T20:22:09.093Z,15.12
2018-05-03T20:32:04.189Z,14.83
2018-05-03T20:42:02.961Z,14.73
2018-05-03T20:51:58.699Z,14.63
2018-05-03T21:01:56.500Z,14.73
2018-05-03T21:11:54.300Z,15.03
2018-05-03T21:21:51.402Z,15.12
2018-05-03T21:31:44.148Z,15.22
2018-05-03T21:41:42.447Z,15.32
2018-05-03T21:51:38.856Z,15.42
2018-05-03T22:01:34.314Z,15.51
2018-05-03T22:11:30.385Z,15.51
2018-05-03T22:21:28.281Z,15.42
2018-05-03T22:31:24.832Z,15.32
2018-05-03T22:41:19.900Z,15.12
2018-05-03T22:51:18.332Z,15.02
2018-05-03T23:01:17.056Z,14.83
2018-05-03T23:11:13.774Z,14.63
2018-05-03T23:21:09.657Z,14.54
2018-05-03T23:31:06.167Z,14.44
2018-05-03T23:41:03.779Z,14.24
2018-05-03T23:50:59.780Z,14.15
